createdAt,value
2019-03-20T00:01:56.075Z,82.45
2019-03-20T00:07:52.622Z,83.52
2019-03-20T00:10:40.440Z,84.12
2019-03-20T00:13:28.306Z,85.52
2019-03-20T00:16:16.224Z,85.13
2019-03-20T00:19:04.099Z,84.76
2019-03-20T00:22:12.569Z,83.80
2019-03-20T00:25:00.490Z,83.14
2019-03-20T00:27:50.417Z,84.78
2019-03-20T00:30:58.462Z,85.63
2019-03-20T00:33:27.111Z,84.39
2019-03-20T00:36:14.999Z,83.14
2019-03-20T00:39:02.913Z,83.47
2019-03-20T00:41:50.754Z,83.96
2019-03-20T00:44:38.523Z,84.97
2019-03-20T00:47:26.480Z,84.55
2019-03-20T00:50:14.363Z,83.72
2019-03-20T00:56:12.024Z,84.47
2019-03-20T00:58:59.781Z,85.08
2019-03-20T01:01:47.612Z,86.04
2019-03-20T01:04:56.090Z,86.32
2019-03-20T01:07:43.864Z,86.78
2019-03-20T01:10:52.342Z,86.67
2019-03-20T01:13:40.097Z,87.45
2019-03-20T01:16:28.041Z,87.57
2019-03-20T01:19:15.992Z,87.26
2019-03-20T01:22:03.918Z,87.13
2019-03-20T01:24:51.758Z,86.68
2019-03-20T01:27:39.647Z,86.64
2019-03-20T01:30:48.098Z,86.60
2019-03-20T01:33:35.949Z,85.86
2019-03-20T01:36:04.650Z,85.53
2019-03-20T01:38:52.409Z,85.59
2019-03-20T01:41:40.216Z,86.19
2019-03-20T01:44:08.864Z,86.33
2019-03-20T01:46:56.782Z,86.77
2019-03-20T01:49:44.629Z,87.27
2019-03-20T01:52:13.300Z,86.25
2019-03-20T01:55:01.196Z,86.23
2019-03-20T01:57:49.267Z,85.24
2019-03-20T02:03:05.718Z,85.13
2019-03-20T02:05:36.145Z,85.41
2019-03-20T02:08:04.770Z,85.73
2019-03-20T02:10:52.602Z,84.85
2019-03-20T02:13:40.464Z,85.11
2019-03-20T02:16:28.406Z,86.69
2019-03-20T02:19:16.367Z,87.01
2019-03-20T02:21:45.078Z,87.67
2019-03-20T02:24:32.939Z,87.45
2019-03-20T02:27:20.870Z,87.48
2019-03-20T02:32:45.998Z,87.52
2019-03-20T02:35:54.447Z,88.32
2019-03-20T02:38:42.325Z,88.22
2019-03-20T02:41:30.236Z,88.24
2019-03-20T02:44:18.113Z,88.30
2019-03-20T02:47:05.986Z,87.64
2019-03-20T02:49:53.800Z,87.09
2019-03-20T02:52:41.644Z,87.85
2019-03-20T02:55:50.124Z,88.28
2019-03-20T02:58:38.141Z,88.80
2019-03-20T03:01:25.900Z,88.33
2019-03-20T03:04:13.780Z,88.84
2019-03-20T03:07:01.690Z,89.16
2019-03-20T03:09:49.650Z,88.53
2019-03-20T03:12:18.336Z,87.50
2019-03-20T03:15:06.128Z,86.69
2019-03-20T03:17:53.999Z,86.14
2019-03-20T03:20:41.937Z,86.55
2019-03-20T03:23:29.785Z,87.67
2019-03-20T03:26:17.915Z,88.66
2019-03-20T03:29:07.412Z,89.42
2019-03-20T03:31:55.310Z,89.49
2019-03-20T03:34:26.007Z,89.29
2019-03-20T03:37:13.839Z,88.73
2019-03-20T03:40:01.778Z,88.85
2019-03-20T03:42:49.704Z,89.01
2019-03-20T03:45:58.337Z,89.19
2019-03-20T03:48:46.160Z,89.98
2019-03-20T03:51:34.127Z,90.54
2019-03-20T04:00:44.135Z,90.24
2019-03-20T04:03:32.008Z,89.18
2019-03-20T04:06:42.206Z,89.22
2019-03-20T04:09:30.358Z,89.99
2019-03-20T04:11:59.353Z,90.74
2019-03-20T04:14:47.372Z,90.97
2019-03-20T04:17:55.847Z,91.18
2019-03-20T04:20:43.695Z,90.85
2019-03-20T04:23:31.641Z,89.12
2019-03-20T04:26:19.544Z,89.93
2019-03-20T04:29:07.370Z,90.47
2019-03-20T04:31:55.303Z,90.60
2019-03-20T04:34:24.004Z,90.84
2019-03-20T04:37:11.798Z,91.02
2019-03-20T04:39:40.489Z,90.92
2019-03-20T04:42:28.499Z,91.16
2019-03-20T04:45:16.302Z,91.27
2019-03-20T04:48:05.666Z,91.43
2019-03-20T04:50:53.550Z,91.27
2019-03-20T04:53:22.355Z,91.66
2019-03-20T04:59:17.074Z,91.81
2019-03-20T05:02:05.384Z,91.74
2019-03-20T05:04:46.883Z,91.86
2019-03-20T05:07:16.503Z,91.20
2019-03-20T05:10:05.786Z,90.95
2019-03-20T05:12:34.414Z,91.30
2019-03-20T05:24:11.250Z,91.60
2019-03-20T05:26:59.295Z,91.33
2019-03-20T05:29:48.016Z,91.71
2019-03-20T05:32:35.978Z,92.00
2019-03-20T05:35:44.419Z,91.85
2019-03-20T05:38:32.339Z,92.08
2019-03-20T05:44:13.626Z,92.33
2019-03-20T05:49:49.590Z,92.30
2019-03-20T05:52:37.632Z,91.86
2019-03-20T05:55:46.278Z,91.88
2019-03-20T05:58:34.408Z,91.50
2019-03-20T06:04:29.111Z,91.40
2019-03-20T06:07:37.576Z,91.34
2019-03-20T06:10:46.048Z,90.87
2019-03-20T06:16:41.194Z,90.58
2019-03-20T06:19:29.235Z,90.33
2019-03-20T06:21:57.930Z,87.94
2019-03-20T06:24:26.584Z,84.86
2019-03-20T06:26:55.258Z,81.86
2019-03-20T06:29:43.394Z,77.92
2019-03-20T06:32:31.174Z,75.28
2019-03-20T06:34:59.813Z,72.66
2019-03-20T06:37:32.693Z,68.43
2019-03-20T06:40:18.621Z,62.45
2019-03-20T06:42:47.231Z,56.76
2019-03-20T06:48:22.737Z,51.70
2019-03-20T06:50:51.384Z,50.37
2019-03-20T06:53:20.087Z,50.67
2019-03-20T06:56:07.935Z,50.63
2019-03-20T06:58:55.741Z,51.17
2019-03-20T07:02:04.168Z,49.72
2019-03-20T07:05:12.651Z,48.39
2019-03-20T07:07:44.342Z,50.68
2019-03-20T07:10:51.253Z,50.04
2019-03-20T07:13:39.121Z,51.07
2019-03-20T07:16:07.833Z,50.17
2019-03-20T07:18:55.688Z,48.94
2019-03-20T07:21:43.596Z,48.15
2019-03-20T07:24:31.457Z,46.61
2019-03-20T07:27:00.124Z,45.74
2019-03-20T07:29:28.781Z,46.56
2019-03-20T07:31:57.397Z,47.38
2019-03-20T07:34:45.176Z,48.47
2019-03-20T07:37:13.860Z,48.50
2019-03-20T07:40:01.739Z,47.40
2019-03-20T07:42:49.642Z,46.16
2019-03-20T07:45:18.345Z,45.91
2019-03-20T07:47:47.043Z,42.78
2019-03-20T07:50:15.723Z,42.47
2019-03-20T07:53:03.505Z,42.36
2019-03-20T07:55:32.195Z,43.29
2019-03-20T07:58:20.104Z,43.31
2019-03-20T08:00:48.808Z,42.99
2019-03-20T08:03:17.503Z,42.89
2019-03-20T08:05:46.221Z,42.66
2019-03-20T08:08:34.055Z,41.43
2019-03-20T08:11:21.867Z,42.05
2019-03-20T08:14:09.676Z,42.29
2019-03-20T08:16:57.518Z,45.37
2019-03-20T08:19:45.476Z,46.38
2019-03-20T08:22:33.358Z,46.61
2019-03-20T08:25:02.006Z,46.09
2019-03-20T08:27:49.956Z,47.28
2019-03-20T08:30:58.473Z,48.25
2019-03-20T08:33:46.348Z,50.91
2019-03-20T08:36:34.116Z,49.47
2019-03-20T08:39:21.973Z,48.31
2019-03-20T08:42:09.783Z,50.02
2019-03-20T08:44:38.415Z,48.27
2019-03-20T08:47:07.115Z,44.11
2019-03-20T08:49:55.004Z,45.59
2019-03-20T08:52:23.683Z,46.30
2019-03-20T08:55:11.514Z,43.51
2019-03-20T08:57:40.217Z,45.80
2019-03-20T09:00:28.220Z,46.04
2019-03-20T09:03:16.079Z,45.30
2019-03-20T09:05:44.621Z,49.00
2019-03-20T09:08:32.559Z,44.29
2019-03-20T09:11:20.432Z,41.69
2019-03-20T09:13:49.118Z,43.19
2019-03-20T09:16:36.865Z,42.58
2019-03-20T09:21:58.376Z,43.93
2019-03-20T09:24:46.156Z,42.65
2019-03-20T09:27:34.025Z,43.54
2019-03-20T09:30:21.897Z,42.59
2019-03-20T09:33:30.331Z,40.16
2019-03-20T09:36:18.135Z,40.18
2019-03-20T09:39:05.877Z,40.32
2019-03-20T09:41:53.644Z,40.55
2019-03-20T09:44:41.405Z,37.99
2019-03-20T09:47:29.266Z,39.58
2019-03-20T09:50:17.075Z,41.16
2019-03-20T09:53:04.839Z,39.34
2019-03-20T09:55:52.700Z,38.81
2019-03-20T09:58:40.536Z,39.13
2019-03-20T10:01:28.399Z,38.92
2019-03-20T10:03:56.905Z,39.68
2019-03-20T10:06:44.826Z,39.52
2019-03-20T10:09:32.661Z,39.08
2019-03-20T10:12:20.613Z,37.73
2019-03-20T10:15:08.422Z,37.87
2019-03-20T10:17:56.266Z,38.18
2019-03-20T10:23:19.848Z,36.81
2019-03-20T10:26:07.667Z,35.02
2019-03-20T10:28:36.210Z,36.31
2019-03-20T10:31:24.037Z,35.66
2019-03-20T10:34:11.903Z,34.86
2019-03-20T10:36:59.776Z,34.25
2019-03-20T10:39:47.524Z,34.74
2019-03-20T10:42:35.394Z,35.00
2019-03-20T10:45:43.816Z,35.88
2019-03-20T10:48:31.620Z,35.56
2019-03-20T10:51:19.394Z,35.39
2019-03-20T10:54:07.247Z,33.71
2019-03-20T10:56:55.039Z,33.63
2019-03-20T10:59:42.895Z,35.10
2019-03-20T11:02:30.658Z,33.06
2019-03-20T11:05:18.455Z,33.25
2019-03-20T11:08:06.326Z,33.27
2019-03-20T11:10:54.284Z,33.85
2019-03-20T11:13:42.052Z,33.89
2019-03-20T11:16:29.914Z,33.24
2019-03-20T11:18:58.529Z,33.30
2019-03-20T11:21:46.398Z,33.54
2019-03-20T11:24:34.276Z,33.63
2019-03-20T11:27:22.065Z,32.29
2019-03-20T11:29:50.805Z,31.52
2019-03-20T11:32:19.489Z,30.20
2019-03-20T11:34:47.992Z,32.02
2019-03-20T11:37:16.674Z,32.06
2019-03-20T11:40:04.588Z,33.43
2019-03-20T11:42:52.468Z,32.83
2019-03-20T11:45:23.398Z,31.78
2019-03-20T11:47:51.637Z,32.93
2019-03-20T11:50:58.731Z,33.08
2019-03-20T11:53:46.400Z,34.25
2019-03-20T11:56:34.163Z,32.74
2019-03-20T11:59:21.951Z,30.93
2019-03-20T12:02:30.409Z,31.66
2019-03-20T12:05:18.278Z,32.17
2019-03-20T12:08:06.140Z,32.03
2019-03-20T12:11:15.906Z,31.79
2019-03-20T12:13:44.962Z,31.99
2019-03-20T12:16:32.782Z,30.27
2019-03-20T12:19:01.400Z,31.08
2019-03-20T12:21:49.235Z,30.49
2019-03-20T12:24:36.981Z,29.18
2019-03-20T12:27:24.805Z,28.40
2019-03-20T12:29:53.503Z,29.44
2019-03-20T12:32:41.408Z,27.73
2019-03-20T12:35:49.875Z,27.42
2019-03-20T12:38:37.699Z,28.35
2019-03-20T12:41:25.512Z,28.96
2019-03-20T12:44:13.293Z,28.79
2019-03-20T12:47:01.153Z,29.15
2019-03-20T12:49:29.647Z,27.47
2019-03-20T12:52:17.543Z,27.60
2019-03-20T12:55:26.028Z,28.15
2019-03-20T12:57:54.760Z,27.70
2019-03-20T13:01:03.206Z,27.67
2019-03-20T13:03:31.887Z,26.35
2019-03-20T13:06:19.705Z,26.62
2019-03-20T13:08:48.385Z,27.23
2019-03-20T13:11:36.128Z,25.74
2019-03-20T13:14:04.885Z,25.34
2019-03-20T13:16:33.490Z,27.99
2019-03-20T13:19:21.340Z,28.21
2019-03-20T13:22:09.088Z,26.52
2019-03-20T13:24:56.786Z,27.09
2019-03-20T13:27:25.402Z,27.44
2019-03-20T13:30:20.043Z,25.17
2019-03-20T13:33:02.741Z,23.50
2019-03-20T13:35:50.578Z,26.11
2019-03-20T13:38:38.451Z,26.19
2019-03-20T13:41:26.280Z,26.14
2019-03-20T13:44:14.104Z,26.27
2019-03-20T13:47:01.966Z,26.72
2019-03-20T13:49:49.841Z,25.97
2019-03-20T13:52:37.548Z,26.33
2019-03-20T13:55:25.499Z,25.91
2019-03-20T13:58:13.303Z,25.60
2019-03-20T14:00:41.951Z,25.97
2019-03-20T14:03:10.565Z,25.95
2019-03-20T14:05:39.167Z,25.70
2019-03-20T14:08:27.041Z,26.08
2019-03-20T14:11:14.876Z,24.99
2019-03-20T14:13:43.562Z,26.69
2019-03-20T14:16:12.210Z,26.54
2019-03-20T14:19:00.074Z,26.90
2019-03-20T14:21:28.724Z,27.95
2019-03-20T14:24:16.465Z,25.00
2019-03-20T14:27:04.296Z,26.01
2019-03-20T14:29:52.172Z,25.70
2019-03-20T14:32:20.682Z,27.53
2019-03-20T14:35:08.580Z,26.10
2019-03-20T14:37:56.404Z,26.26
2019-03-20T14:41:04.872Z,26.75
2019-03-20T14:43:52.690Z,26.75
2019-03-20T14:46:21.375Z,27.93
2019-03-20T14:48:49.988Z,25.46
2019-03-20T14:51:37.864Z,25.67
2019-03-20T14:54:06.509Z,24.63
2019-03-20T14:56:54.380Z,24.36
2019-03-20T14:59:42.126Z,24.67
2019-03-20T15:02:10.809Z,25.76
2019-03-20T15:04:39.433Z,27.05
2019-03-20T15:07:08.069Z,25.37
2019-03-20T15:09:55.949Z,25.54
2019-03-20T15:12:24.519Z,25.38
2019-03-20T15:15:12.322Z,25.25
2019-03-20T15:18:00.152Z,23.50
2019-03-20T15:20:48.021Z,23.76
2019-03-20T15:23:35.890Z,24.84
2019-03-20T15:26:04.571Z,24.70
2019-03-20T15:28:52.409Z,24.72
2019-03-20T15:31:40.219Z,25.76
2019-03-20T15:34:27.999Z,26.23
2019-03-20T15:37:15.745Z,25.64
2019-03-20T15:40:03.576Z,25.31
2019-03-20T15:42:51.451Z,27.51
2019-03-20T15:45:39.362Z,27.02
2019-03-20T15:48:07.978Z,27.53
2019-03-20T15:50:55.821Z,28.46
2019-03-20T15:53:24.518Z,27.89
2019-03-20T15:55:53.161Z,27.70
2019-03-20T15:58:41.061Z,27.95
2019-03-20T16:01:09.720Z,28.31
2019-03-20T16:03:57.678Z,28.93
2019-03-20T16:06:45.529Z,27.84
2019-03-20T16:09:33.363Z,27.99
2019-03-20T16:12:21.219Z,28.94
2019-03-20T16:15:09.030Z,28.62
2019-03-20T16:17:56.942Z,28.17
2019-03-20T16:20:25.548Z,28.61
2019-03-20T16:23:13.381Z,28.51
2019-03-20T16:25:41.914Z,29.10
2019-03-20T16:28:10.536Z,28.63
2019-03-20T16:30:58.307Z,29.94
2019-03-20T16:33:26.840Z,30.24
2019-03-20T16:36:14.672Z,30.86
2019-03-20T16:39:02.625Z,31.90
2019-03-20T16:41:50.442Z,31.28
2019-03-20T16:44:38.315Z,32.27
2019-03-20T16:47:26.189Z,32.32
2019-03-20T16:50:13.965Z,33.16
2019-03-20T16:53:01.792Z,33.26
2019-03-20T16:55:49.643Z,33.87
2019-03-20T16:58:37.408Z,34.06
2019-03-20T17:01:06.206Z,34.37
2019-03-20T17:03:54.077Z,35.58
2019-03-20T17:06:42.045Z,35.57
2019-03-20T17:12:04.457Z,36.54
2019-03-20T17:14:33.081Z,36.60
2019-03-20T17:17:01.581Z,36.56
2019-03-20T17:20:10.061Z,37.66
2019-03-20T17:22:58.541Z,38.42
2019-03-20T17:25:46.667Z,39.54
2019-03-20T17:28:34.636Z,40.19
2019-03-20T17:31:22.422Z,40.10
2019-03-20T17:36:44.370Z,40.66
2019-03-20T17:39:13.478Z,42.71
2019-03-20T17:42:01.478Z,43.89
2019-03-20T17:44:49.617Z,43.13
2019-03-20T17:47:18.367Z,42.51
2019-03-20T17:50:06.271Z,43.69
2019-03-20T17:52:54.119Z,44.71
2019-03-20T17:55:42.054Z,44.58
2019-03-20T17:58:29.874Z,44.68
2019-03-20T18:01:17.819Z,46.30
2019-03-20T18:04:05.632Z,48.25
2019-03-20T18:06:53.533Z,49.46
2019-03-20T18:09:41.451Z,47.35
2019-03-20T18:12:29.432Z,49.16
2019-03-20T18:15:17.247Z,50.99
2019-03-20T18:17:46.256Z,49.46
2019-03-20T18:20:34.605Z,50.39
2019-03-20T18:23:22.614Z,48.51
2019-03-20T18:26:10.862Z,48.66
2019-03-20T18:28:59.345Z,49.47
2019-03-20T18:31:27.977Z,48.02
2019-03-20T18:34:15.872Z,47.66
2019-03-20T18:37:03.718Z,48.83
2019-03-20T18:39:51.585Z,48.88
2019-03-20T18:42:39.445Z,50.01
2019-03-20T18:45:48.003Z,51.19
2019-03-20T18:48:36.260Z,52.46
2019-03-20T18:51:25.416Z,53.13
2019-03-20T18:54:13.284Z,54.15
2019-03-20T18:57:01.180Z,54.02
2019-03-20T18:59:49.268Z,55.25
2019-03-20T19:02:37.139Z,55.89
2019-03-20T19:05:45.623Z,56.33
2019-03-20T19:08:33.665Z,56.58
2019-03-20T19:11:04.064Z,57.46
2019-03-20T19:13:52.102Z,58.13
2019-03-20T19:16:39.923Z,54.68
2019-03-20T19:19:27.746Z,53.99
2019-03-20T19:22:36.205Z,57.04
2019-03-20T19:27:58.425Z,60.36
2019-03-20T19:31:06.881Z,60.33
2019-03-20T19:33:54.759Z,57.96
2019-03-20T19:36:30.999Z,59.01
2019-03-20T19:39:18.729Z,59.88
2019-03-20T19:42:06.480Z,60.98
2019-03-20T19:44:54.352Z,61.07
2019-03-20T19:47:42.112Z,61.04
2019-03-20T19:50:50.991Z,60.79
2019-03-20T19:53:38.987Z,61.45
2019-03-20T19:56:26.858Z,59.19
2019-03-20T19:59:14.710Z,59.15
2019-03-20T20:02:02.870Z,61.87
2019-03-20T20:04:50.650Z,62.15
2019-03-20T20:07:19.319Z,62.61
2019-03-20T20:09:48.332Z,64.78
2019-03-20T20:12:36.249Z,64.12
2019-03-20T20:15:45.109Z,63.48
2019-03-20T20:21:28.294Z,62.57
2019-03-20T20:24:16.221Z,62.78
2019-03-20T20:27:04.149Z,63.42
2019-03-20T20:29:51.977Z,64.84
2019-03-20T20:32:39.909Z,62.23
2019-03-20T20:35:48.373Z,63.03
2019-03-20T20:38:17.000Z,64.77
2019-03-20T20:44:11.661Z,65.10
2019-03-20T20:47:20.088Z,64.85
2019-03-20T20:50:07.957Z,65.46
2019-03-20T20:52:55.856Z,66.07
2019-03-20T20:55:26.235Z,65.38
2019-03-20T20:58:14.186Z,67.05
2019-03-20T21:01:02.813Z,65.47
2019-03-20T21:03:50.671Z,63.72
2019-03-20T21:06:38.503Z,64.65
2019-03-20T21:09:47.222Z,66.22
2019-03-20T21:12:35.266Z,64.01
2019-03-20T21:15:42.687Z,64.56
2019-03-20T21:18:32.849Z,65.47
2019-03-20T21:21:21.055Z,66.86
2019-03-20T21:24:28.683Z,67.69
2019-03-20T21:27:36.191Z,65.26
2019-03-20T21:30:43.507Z,64.73
2019-03-20T21:33:34.002Z,65.63
2019-03-20T21:36:43.246Z,66.76
2019-03-20T21:39:32.713Z,66.35
2019-03-20T21:42:40.229Z,66.77
2019-03-20T21:45:47.772Z,68.06
2019-03-20T21:51:31.348Z,70.30
2019-03-20T21:54:38.742Z,71.08
2019-03-20T21:57:47.197Z,71.43
2019-03-20T22:00:56.090Z,71.55
2019-03-20T22:03:45.725Z,71.89
2019-03-20T22:06:53.566Z,71.60
2019-03-20T22:10:03.027Z,71.67
2019-03-20T22:13:18.676Z,71.67
2019-03-20T22:16:21.566Z,72.03
2019-03-20T22:19:29.004Z,72.02
2019-03-20T22:22:36.940Z,72.18
2019-03-20T22:25:27.210Z,72.26
2019-03-20T22:28:34.940Z,72.53
2019-03-20T22:34:37.223Z,72.32
2019-03-20T22:40:16.284Z,71.10
2019-03-20T22:43:30.122Z,71.04
2019-03-20T22:46:33.973Z,71.42
2019-03-20T22:49:41.690Z,71.39
2019-03-20T22:52:50.207Z,71.36
2019-03-20T22:55:57.335Z,72.08
2019-03-20T22:58:45.803Z,71.19
2019-03-20T23:01:52.967Z,71.65
2019-03-20T23:05:01.432Z,71.46
2019-03-20T23:08:09.985Z,72.08
2019-03-20T23:10:57.836Z,71.72
2019-03-20T23:13:26.374Z,70.93
2019-03-20T23:16:14.139Z,71.70
2019-03-20T23:19:01.878Z,72.07
2019-03-20T23:22:10.306Z,71.55
2019-03-20T23:24:58.185Z,71.51
2019-03-20T23:28:06.596Z,72.34
2019-03-20T23:31:15.089Z,71.70
2019-03-20T23:37:09.716Z,71.93
2019-03-20T23:39:57.541Z,72.67
2019-03-20T23:42:45.348Z,72.64
2019-03-20T23:45:53.767Z,72.23
2019-03-20T23:49:00.956Z,71.74
2019-03-20T23:52:09.385Z,72.09
2019-03-20T23:54:57.328Z,71.18
2019-03-20T23:57:45.018Z,71.98
